Time;durP1;ratioP1;P1;durP2;ratioP2;P2;SDS_P1;SDS_P2;PMS_P1;PMS_P2;Temp;Humidity;BMP_temperature;BMP_pressure;BME280_temperature;BME280_humidity;BME280_pressure;Samples;Min_cycle;Max_cycle;Signal;HPM_P1;HPM_P2
2023/04/09 00:00:01;;;;;;;;;;;;;;;7.33;71.46;102217.00;5082757;28;2006;-77
2023/04/09 00:02:28;;;;;;;;;;;;;;;7.33;71.44;102211.63;5082687;28;1952;-78
2023/04/09 00:04:54;;;;;;;;;;;;;;;7.32;71.36;102209.09;5065218;28;1989;-79
2023/04/09 00:07:21;;;;;;;;;;;;;;;7.31;71.33;102205.59;5082861;28;1771;-78
2023/04/09 00:09:47;;;;;;;;;;;;;;;7.31;71.37;102210.13;5081751;28;2137;-78
2023/04/09 00:12:14;;;;;;;;;;;;;;;7.30;71.38;102216.47;5063966;28;4902;-78
2023/04/09 00:14:40;;;;;;;;;;;;;;;7.28;71.56;102209.41;5077980;28;3928;-78
2023/04/09 00:17:07;;;;;;;;;;;;;;;7.27;71.69;102205.06;5067456;28;1688;-78
2023/04/09 00:19:34;;;;;;;;;;;;;;;7.26;71.28;102207.88;5064445;28;3883;-76
2023/04/09 00:22:00;;;;;;;;;;;;;;;7.26;71.74;102203.41;5084403;28;2122;-77
2023/04/09 00:24:27;;;;;;;;;;;;;;;7.24;71.67;102207.22;5079185;28;2875;-77
2023/04/09 00:26:53;;;;;;;;;;;;;;;7.24;71.62;102199.19;5083759;28;1860;-77
2023/04/09 00:29:20;;;;;;;;;;;;;;;7.22;71.56;102203.84;5082935;28;2251;-80
2023/04/09 00:31:46;;;;;;;;;;;;;;;7.21;71.35;102204.88;5080687;28;2153;-77
2023/04/09 00:34:13;;;;;;;;;;;;;;;7.20;71.22;102198.63;5084667;28;2042;-78
2023/04/09 00:36:39;;;;;;;;;;;;;;;7.19;71.62;102193.47;5084129;28;3052;-78
2023/04/09 00:39:06;;;;;;;;;;;;;;;7.18;71.32;102189.94;5082353;28;2106;-78
2023/04/09 00:41:32;;;;;;;;;;;;;;;7.17;71.31;102190.09;5082933;28;1896;-78
2023/04/09 00:43:59;;;;;;;;;;;;;;;7.16;71.55;102196.44;5081381;28;2149;-79
2023/04/09 00:46:26;;;;;;;;;;;;;;;7.15;71.47;102186.75;5082822;28;2075;-79
2023/04/09 00:48:52;;;;;;;;;;;;;;;7.14;71.63;102196.59;5083913;28;1987;-78
2023/04/09 00:51:19;;;;;;;;;;;;;;;7.13;71.58;102199.44;5065766;28;1985;-79
2023/04/09 00:53:46;;;;;;;;;;;;;;;7.12;71.62;102197.75;5084658;28;1053;-79
2023/04/09 00:56:12;;;;;;;;;;;;;;;7.11;71.44;102196.06;5083352;28;1801;-79
2023/04/09 00:58:39;;;;;;;;;;;;;;;7.10;71.36;102195.25;5083548;28;1613;-79
2023/04/09 01:01:05;;;;;;;;;;;;;;;7.10;71.38;102203.28;5082001;28;2188;-79
2023/04/09 01:03:32;;;;;;;;;;;;;;;7.08;71.37;102199.06;5083812;28;1672;-77
2023/04/09 01:05:58;;;;;;;;;;;;;;;7.06;71.25;102201.91;5083355;28;1787;-78
2023/04/09 01:08:25;;;;;;;;;;;;;;;7.06;71.22;102193.88;5081458;28;1986;-75
2023/04/09 01:10:51;;;;;;;;;;;;;;;7.05;71.17;102200.22;5081912;28;2080;-79
2023/04/09 01:13:18;;;;;;;;;;;;;;;7.03;71.31;102188.84;5082841;28;2378;-78
2023/04/09 01:15:44;;;;;;;;;;;;;;;7.02;71.39;102193.34;5061860;28;1986;-76
2023/04/09 01:18:11;;;;;;;;;;;;;;;7.02;71.17;102209.41;5062264;28;1725;-77
2023/04/09 01:20:38;;;;;;;;;;;;;;;7.01;71.54;102194.34;5081728;28;2202;-78
2023/04/09 01:23:04;;;;;;;;;;;;;;;7.00;71.15;102194.47;5080906;28;5023;-79
2023/04/09 01:25:31;;;;;;;;;;;;;;;6.98;71.13;102191.97;5081775;28;4626;-75
2023/04/09 01:27:57;;;;;;;;;;;;;;;6.98;71.44;102193.81;5082862;28;3702;-79
2023/04/09 01:30:24;;;;;;;;;;;;;;;6.96;71.45;102191.28;5077283;28;2003;-80
2023/04/09 01:32:50;;;;;;;;;;;;;;;6.96;71.14;102201.16;5082321;28;1006;-80
2023/04/09 01:35:17;;;;;;;;;;;;;;;6.95;71.07;102194.97;5081210;28;2005;-76
2023/04/09 01:37:43;;;;;;;;;;;;;;;6.94;71.04;102195.09;5062720;28;2012;-77
2023/04/09 01:40:10;;;;;;;;;;;;;;;6.92;71.45;102195.28;5064070;28;3765;-79
2023/04/09 01:42:36;;;;;;;;;;;;;;;6.91;71.25;102192.75;5081210;28;1739;-78
2023/04/09 01:45:03;;;;;;;;;;;;;;;6.90;71.31;102197.25;5061939;28;2149;-78
2023/04/09 01:47:29;;;;;;;;;;;;;;;6.89;71.29;102194.75;5080219;28;2295;-79
2023/04/09 01:49:56;;;;;;;;;;;;;;;6.88;71.30;102199.25;5066278;28;1795;-77
2023/04/09 01:52:23;;;;;;;;;;;;;;;6.87;71.01;102188.69;5081662;28;1910;-78
2023/04/09 01:54:49;;;;;;;;;;;;;;;6.87;71.07;102192.22;5082713;28;1988;-79
2023/04/09 01:57:16;;;;;;;;;;;;;;;6.85;71.41;102190.69;5080936;28;1831;-78
2023/04/09 01:59:42;;;;;;;;;;;;;;;6.84;71.19;102189.84;5082657;28;1785;-77
2023/04/09 02:02:09;;;;;;;;;;;;;;;6.85;71.15;102188.00;5079137;28;2026;-78
2023/04/09 02:04:36;;;;;;;;;;;;;;;6.82;71.35;102191.84;5080543;28;2789;-77
2023/04/09 02:07:02;;;;;;;;;;;;;;;6.81;71.20;102187.47;5080761;28;2022;-79
2023/04/09 02:09:29;;;;;;;;;;;;;;;6.80;71.32;102186.66;5082770;28;1068;-79
2023/04/09 02:11:56;;;;;;;;;;;;;;;6.79;71.21;102198.38;5078084;28;2292;-77
2023/04/09 02:14:22;;;;;;;;;;;;;;;6.78;71.23;102187.78;5061285;28;1979;-78
2023/04/09 02:16:49;;;;;;;;;;;;;;;6.77;70.86;102183.44;5076222;28;2480;-79
2023/04/09 02:19:15;;;;;;;;;;;;;;;6.75;70.78;102191.63;5081922;28;1018;-78
2023/04/09 02:21:43;;;;;;;;;;;;;;;6.75;71.18;102194.28;5076221;28;2165;-78
2023/04/09 02:24:09;;;;;;;;;;;;;;;6.74;70.73;102187.25;5080574;28;1967;-78
2023/04/09 02:26:36;;;;;;;;;;;;;;;6.74;70.80;102189.09;5078003;28;4857;-76
2023/04/09 02:29:02;;;;;;;;;;;;;;;6.71;71.00;102182.22;5080841;28;5197;-78
2023/04/09 02:31:29;;;;;;;;;;;;;;;6.71;71.05;102184.91;5079210;28;2081;-79
2023/04/09 02:33:55;;;;;;;;;;;;;;;6.70;70.64;102187.72;5062488;28;3680;-78
2023/04/09 02:36:22;;;;;;;;;;;;;;;6.70;71.08;102193.06;5064060;28;1709;-79
2023/04/09 02:38:48;;;;;;;;;;;;;;;6.68;70.93;102200.44;5081099;28;1734;-80
2023/04/09 02:41:15;;;;;;;;;;;;;;;6.66;71.08;102195.22;5081165;28;1936;-78
2023/04/09 02:43:41;;;;;;;;;;;;;;;6.66;70.78;102191.72;5061581;28;2319;-78
2023/04/09 02:46:08;;;;;;;;;;;;;;;6.66;70.71;102199.75;5077747;28;3481;-77
2023/04/09 02:48:34;;;;;;;;;;;;;;;6.65;70.66;102195.38;5062217;28;3673;-77
2023/04/09 02:51:01;;;;;;;;;;;;;;;6.63;70.97;102192.84;5062802;28;3471;-78
2023/04/09 02:53:28;;;;;;;;;;;;;;;6.62;70.60;102191.19;5080649;28;2604;-78
2023/04/09 02:55:54;;;;;;;;;;;;;;;6.62;70.65;102195.66;5064873;28;3271;-77
2023/04/09 02:58:21;;;;;;;;;;;;;;;6.60;70.87;102196.69;5079458;28;2121;-77
2023/04/09 03:00:47;;;;;;;;;;;;;;;6.59;70.93;102188.81;5079547;28;2347;-80
2023/04/09 03:03:14;;;;;;;;;;;;;;;6.58;70.88;102190.63;5080364;28;2089;-81
2023/04/09 03:05:40;;;;;;;;;;;;;;;6.57;70.68;102188.97;5080821;28;2157;-77
2023/04/09 03:08:07;;;;;;;;;;;;;;;6.55;70.66;102185.56;5061709;28;2912;-77
2023/04/09 03:10:33;;;;;;;;;;;;;;;6.56;70.75;102191.81;5079808;28;1780;-78
2023/04/09 03:13:00;;;;;;;;;;;;;;;6.55;70.66;102187.41;5080764;28;2029;-77
2023/04/09 03:15:26;;;;;;;;;;;;;;;6.54;70.52;102191.09;5079599;28;2216;-79
2023/04/09 03:17:53;;;;;;;;;;;;;;;6.53;70.53;102186.72;5061675;28;2121;-80
2023/04/09 03:20:19;;;;;;;;;;;;;;;6.52;70.43;102187.72;5078101;28;3608;-80
2023/04/09 03:22:46;;;;;;;;;;;;;;;6.51;70.52;102186.06;5080649;28;2069;-80
2023/04/09 03:25:13;;;;;;;;;;;;;;;6.48;70.55;102187.19;5062348;28;2162;-77
2023/04/09 03:27:39;;;;;;;;;;;;;;;6.49;70.64;102180.00;5064038;28;2347;-78
2023/04/09 03:30:06;;;;;;;;;;;;;;;6.48;70.63;102173.81;5079433;28;2104;-79
2023/04/09 03:32:32;;;;;;;;;;;;;;;6.46;70.73;102183.00;5061891;28;2117;-76
2023/04/09 03:34:59;;;;;;;;;;;;;;;6.45;70.56;102184.00;5079015;28;5008;-77
2023/04/09 03:37:25;;;;;;;;;;;;;;;6.46;70.24;102175.78;5063078;28;5137;-78
2023/04/09 03:39:52;;;;;;;;;;;;;;;6.44;70.46;102175.13;5062538;28;2145;-78
2023/04/09 03:42:18;;;;;;;;;;;;;;;6.44;70.59;102175.13;5080154;28;4107;-77
2023/04/09 03:44:45;;;;;;;;;;;;;;;6.41;70.51;102172.72;5079407;28;2566;-80
2023/04/09 03:47:11;;;;;;;;;;;;;;;6.43;70.46;102175.28;5081807;28;2216;-77
2023/04/09 03:49:38;;;;;;;;;;;;;;;6.40;70.39;102170.22;5080516;28;1958;-77
2023/04/09 03:52:04;;;;;;;;;;;;;;;6.40;70.19;102171.06;5080840;28;1972;-78
2023/04/09 03:54:31;;;;;;;;;;;;;;;6.40;70.13;102172.91;5080417;28;3909;-80
2023/04/09 03:56:58;;;;;;;;;;;;;;;6.38;70.24;102178.38;5080258;28;1676;-77
2023/04/09 03:59:24;;;;;;;;;;;;;;;6.37;70.21;102174.03;5080349;28;1679;-77
2023/04/09 04:01:51;;;;;;;;;;;;;;;6.37;70.48;102166.00;5075898;28;2092;-77
2023/04/09 04:04:41;;;;;;;;;;;;;;;6.36;70.38;102172.38;5082529;28;1947;-79
2023/04/09 04:07:33;;;;;;;;;;;;;;;6.36;70.03;102170.53;5076415;28;1992;-78
2023/04/09 04:10:25;;;;;;;;;;;;;;;6.35;70.19;102170.66;5088089;28;1967;-76
2023/04/09 04:13:17;;;;;;;;;;;;;;;6.33;70.20;102167.31;5093792;28;1904;-77
2023/04/09 04:16:09;;;;;;;;;;;;;;;6.35;70.28;102162.63;5086779;28;1884;-78
2023/04/09 04:19:01;;;;;;;;;;;;;;;6.31;69.92;102169.31;5086978;28;1749;-79
2023/04/09 04:21:54;;;;;;;;;;;;;;;6.31;70.28;102172.81;5083364;28;2031;-79
2023/04/09 04:24:46;;;;;;;;;;;;;;;6.39;70.08;102173.91;5092710;28;1664;-78
2023/04/09 04:27:38;;;;;;;;;;;;;;;6.33;69.65;102165.47;5092049;28;1667;-78
2023/04/09 04:30:30;;;;;;;;;;;;;;;6.34;69.60;102171.66;5092372;28;2270;-79
2023/04/09 04:33:22;;;;;;;;;;;;;;;6.31;69.73;102171.97;5080779;28;2038;-78
2023/04/09 04:36:14;;;;;;;;;;;;;;;6.30;69.97;102175.66;5081291;28;4930;-77
2023/04/09 04:39:06;;;;;;;;;;;;;;;6.33;69.66;102170.00;5089060;28;3743;-78
2023/04/09 04:41:58;;;;;;;;;;;;;;;6.27;69.79;102176.78;5088036;28;3781;-77
2023/04/09 04:44:50;;;;;;;;;;;;;;;6.47;69.21;102177.50;5090097;28;2178;-78
2023/04/09 04:47:42;;;;;;;;;;;;;;;6.39;69.41;102181.94;5090210;28;1656;-77
2023/04/09 04:50:34;;;;;;;;;;;;;;;6.36;69.13;102177.72;5093065;28;1899;-78
2023/04/09 04:53:26;;;;;;;;;;;;;;;6.25;69.55;102175.25;5091909;28;3055;-77
2023/04/09 04:56:18;;;;;;;;;;;;;;;6.24;69.50;102186.97;5091015;28;1802;-77
2023/04/09 04:59:10;;;;;;;;;;;;;;;6.28;69.57;102177.63;5089724;28;2092;-77
2023/04/09 05:02:03;;;;;;;;;;;;;;;6.32;68.95;102179.88;5085433;28;2006;-78
2023/04/09 05:04:55;;;;;;;;;;;;;;;6.34;69.18;102179.69;5090054;28;1978;-78
2023/04/09 05:07:47;;;;;;;;;;;;;;;6.34;69.00;102177.84;5088804;28;1659;-78
2023/04/09 05:10:39;;;;;;;;;;;;;;;6.20;69.53;102186.41;5088660;28;2202;-78
2023/04/09 05:13:31;;;;;;;;;;;;;;;6.17;69.55;102180.53;5080360;28;2053;-79
2023/04/09 05:16:23;;;;;;;;;;;;;;;6.20;69.41;102180.22;5084448;28;2126;-77
2023/04/09 05:19:10;;;;;;;;;;;;;;;6.13;69.66;102186.19;5087889;28;1991;-78
2023/04/09 05:21:56;;;;;;;;;;;;;;;6.10;69.74;102183.81;5076270;28;3845;-78
2023/04/09 05:24:25;;;;;;;;;;;;;;;6.08;69.43;102184.94;5064217;28;3095;-78
2023/04/09 05:26:51;;;;;;;;;;;;;;;6.09;69.36;102179.44;5063790;28;2888;-77
2023/04/09 05:29:18;;;;;;;;;;;;;;;6.18;69.26;102184.88;5081642;28;1940;-79
2023/04/09 05:31:45;;;;;;;;;;;;;;;6.11;69.40;102181.97;5078113;28;2069;-77
2023/04/09 05:34:11;;;;;;;;;;;;;;;6.06;69.34;102187.78;5082322;28;1661;-79
2023/04/09 05:36:38;;;;;;;;;;;;;;;6.11;69.07;102182.81;5075552;28;2277;-79
2023/04/09 05:39:04;;;;;;;;;;;;;;;6.05;69.32;102178.06;5074709;28;2934;-77
2023/04/09 05:41:32;;;;;;;;;;;;;;;6.04;69.47;102184.41;5064310;28;2090;-78
2023/04/09 05:43:58;;;;;;;;;;;;;;;6.03;69.30;102180.06;5064360;28;4911;-79
2023/04/09 05:46:26;;;;;;;;;;;;;;;6.02;69.30;102183.69;5063033;28;3182;-79
2023/04/09 05:48:52;;;;;;;;;;;;;;;6.02;69.50;102183.69;5081172;28;1069;-75
2023/04/09 05:51:19;;;;;;;;;;;;;;;6.01;69.25;102184.72;5082869;28;3158;-78
2023/04/09 05:53:45;;;;;;;;;;;;;;;6.00;69.38;102176.81;5064532;28;1910;-78
2023/04/09 05:56:12;;;;;;;;;;;;;;;5.98;69.33;102178.81;5082006;28;1820;-76
2023/04/09 05:58:38;;;;;;;;;;;;;;;5.98;69.66;102185.00;5083071;28;1061;-76
2023/04/09 06:01:05;;;;;;;;;;;;;;;5.97;69.24;102182.47;5082425;28;1593;-77
2023/04/09 06:03:31;;;;;;;;;;;;;;;5.96;69.44;102181.63;5064591;28;3049;-79
2023/04/09 06:05:58;;;;;;;;;;;;;;;5.96;69.22;102186.16;5079722;28;1961;-79
2023/04/09 06:08:25;;;;;;;;;;;;;;;5.96;69.41;102180.78;5069889;28;1555;-75
2023/04/09 06:10:51;;;;;;;;;;;;;;;5.94;69.46;102178.25;5071563;28;2051;-76
2023/04/09 06:13:18;;;;;;;;;;;;;;;5.94;69.12;102185.44;5069161;28;1938;-79
2023/04/09 06:15:44;;;;;;;;;;;;;;;5.92;69.31;102186.41;5070646;28;1932;-78
2023/04/09 06:18:11;;;;;;;;;;;;;;;5.93;69.14;102189.97;5052907;28;1705;-75
2023/04/09 06:20:37;;;;;;;;;;;;;;;5.91;69.13;102183.88;5069858;28;1656;-78
2023/04/09 06:23:04;;;;;;;;;;;;;;;5.92;69.34;102193.59;5067837;28;2055;-78
2023/04/09 06:25:31;;;;;;;;;;;;;;;5.89;69.18;102189.38;5048911;28;1727;-78
2023/04/09 06:27:57;;;;;;;;;;;;;;;5.91;69.22;102195.44;5069856;28;1739;-76
2023/04/09 06:30:24;;;;;;;;;;;;;;;5.89;69.22;102194.75;5074453;28;1605;-78
2023/04/09 06:32:51;;;;;;;;;;;;;;;5.88;69.36;102202.91;5043723;28;1906;-80
2023/04/09 06:35:17;;;;;;;;;;;;;;;5.87;69.12;102196.72;5068458;28;1882;-78
2023/04/09 06:37:44;;;;;;;;;;;;;;;5.86;69.06;102195.03;5065973;28;1909;-79
2023/04/09 06:40:10;;;;;;;;;;;;;;;5.85;69.38;102196.03;5078614;28;2153;-76
2023/04/09 06:42:37;;;;;;;;;;;;;;;5.85;69.05;102204.06;5069316;28;1984;-77
2023/04/09 06:45:07;;;;;;;;;;;;;;;5.85;69.28;102204.06;5067593;28;1953;-78
2023/04/09 06:47:33;;;;;;;;;;;;;;;5.84;69.25;102202.34;5068078;28;1770;-79
2023/04/09 06:50:00;;;;;;;;;;;;;;;5.84;69.12;102201.53;5055495;28;4804;-78
2023/04/09 06:52:26;;;;;;;;;;;;;;;5.84;69.19;102201.53;5081347;28;3925;-78
2023/04/09 06:54:53;;;;;;;;;;;;;;;5.82;69.08;102195.47;5065068;28;2102;-78
2023/04/09 06:57:20;;;;;;;;;;;;;;;5.82;69.02;102201.66;5059838;28;3211;-78
2023/04/09 06:59:46;;;;;;;;;;;;;;;5.82;69.06;102201.66;5079297;28;2403;-77
2023/04/09 07:02:13;;;;;;;;;;;;;;;5.82;69.01;102200.81;5069128;28;2050;-77
2023/04/09 07:04:40;;;;;;;;;;;;;;;5.80;69.17;102202.81;5070929;28;2548;-78
2023/04/09 07:07:06;;;;;;;;;;;;;;;5.80;69.02;102200.97;5080396;28;1764;-79
2023/04/09 07:09:33;;;;;;;;;;;;;;;5.80;69.01;102203.66;5082152;28;3318;-79
2023/04/09 07:12:00;;;;;;;;;;;;;;;5.80;69.09;102195.63;5074902;28;2111;-77
2023/04/09 07:14:26;;;;;;;;;;;;;;;5.79;69.09;102193.94;5081504;28;1708;-77
2023/04/09 07:16:53;;;;;;;;;;;;;;;5.79;69.20;102199.28;5081263;28;1709;-77
2023/04/09 07:19:20;;;;;;;;;;;;;;;5.79;68.87;102198.44;5080784;28;1729;-78
2023/04/09 07:21:46;;;;;;;;;;;;;;;5.78;68.83;102194.94;5064846;28;1323;-79
2023/04/09 07:24:13;;;;;;;;;;;;;;;5.79;68.88;102203.78;5080635;28;1914;-78
2023/04/09 07:26:40;;;;;;;;;;;;;;;5.78;68.84;102191.41;5080717;28;1989;-76
2023/04/09 07:29:06;;;;;;;;;;;;;;;5.80;68.76;102200.16;5079424;28;1975;-78
2023/04/09 07:31:33;;;;;;;;;;;;;;;5.79;68.72;102201.13;5060606;28;1912;-78
2023/04/09 07:33:59;;;;;;;;;;;;;;;5.78;68.92;102202.94;5078845;28;3482;-78
2023/04/09 07:36:26;;;;;;;;;;;;;;;5.77;68.92;102217.31;5063097;28;3391;-78
2023/04/09 07:38:53;;;;;;;;;;;;;;;5.76;69.00;102196.91;5080966;28;1080;-78
2023/04/09 07:41:19;;;;;;;;;;;;;;;5.78;68.98;102199.44;5077771;28;3538;-78
2023/04/09 07:43:46;;;;;;;;;;;;;;;5.77;68.67;102195.94;5064585;28;1935;-78
2023/04/09 07:46:12;;;;;;;;;;;;;;;5.77;68.78;102203.13;5065755;28;2317;-78
2023/04/09 07:48:39;;;;;;;;;;;;;;;5.77;69.00;102198.59;5083414;28;2207;-78
2023/04/09 07:51:05;;;;;;;;;;;;;;;5.77;68.77;102203.13;5065664;28;2209;-77
2023/04/09 07:53:32;;;;;;;;;;;;;;;5.76;68.82;102202.25;5067364;28;2379;-78
2023/04/09 07:55:59;;;;;;;;;;;;;;;5.78;68.74;102194.09;5065598;28;1904;-78
2023/04/09 07:58:25;;;;;;;;;;;;;;;5.77;68.83;102195.94;5081749;28;4897;-78
2023/04/09 08:00:52;;;;;;;;;;;;;;;5.50;68.70;102148.66;5082219;28;4795;-79
2023/04/09 08:03:18;;;;;;;;;;;;;;;5.77;68.92;102187.91;5084033;28;3586;-78
2023/04/09 08:05:45;;;;;;;;;;;;;;;5.76;68.78;102186.19;5083395;28;2314;-79
2023/04/09 08:08:12;;;;;;;;;;;;;;;5.78;68.81;102191.41;5084416;28;1819;-79
2023/04/09 08:10:38;;;;;;;;;;;;;;;5.78;68.76;102191.41;5084361;28;1967;-78
2023/04/09 08:13:05;;;;;;;;;;;;;;;5.77;68.73;102179.88;5084381;28;1967;-79
2023/04/09 08:15:34;;;;;;;;;;;;;;;5.78;68.71;102181.56;5083935;28;3597;-78
2023/04/09 08:18:02;;;;;;;;;;;;;;;5.79;68.56;102177.88;5085281;28;1878;-79
2023/04/09 08:20:29;;;;;;;;;;;;;;;5.79;68.84;102177.88;5083839;28;1362;-78
2023/04/09 08:22:56;;;;;;;;;;;;;;;5.79;68.90;102179.72;5081714;28;1734;-78
2023/04/09 08:25:23;;;;;;;;;;;;;;;5.80;68.71;102176.06;5080218;28;1689;-78
2023/04/09 08:27:49;;;;;;;;;;;;;;;5.79;68.58;102177.88;5082995;28;1741;-78
2023/04/09 08:30:16;;;;;;;;;;;;;;;5.80;68.65;102179.59;5079608;28;2042;-79
2023/04/09 08:32:43;;;;;;;;;;;;;;;5.81;68.75;102180.44;5083441;28;1971;-79
2023/04/09 08:35:09;;;;;;;;;;;;;;;5.80;68.59;102176.91;5084239;28;1652;-79
2023/04/09 08:37:36;;;;;;;;;;;;;;;5.81;68.47;102177.75;5066159;28;1439;-78
2023/04/09 08:40:02;;;;;;;;;;;;;;;5.81;68.91;102177.75;5083456;28;1732;-79
2023/04/09 08:42:29;;;;;;;;;;;;;;;5.83;68.68;102183.81;5081478;28;1924;-79
2023/04/09 08:44:56;;;;;;;;;;;;;;;5.83;68.58;102173.09;5063255;28;1996;-78
2023/04/09 08:47:22;;;;;;;;;;;;;;;5.83;68.61;102173.09;5066244;28;1688;-78
2023/04/09 08:49:49;;;;;;;;;;;;;;;5.83;68.84;102173.09;5065216;28;2082;-79
2023/04/09 08:52:20;;;;;;;;;;;;;;;5.82;68.79;102172.25;5066776;28;2078;-79
2023/04/09 08:54:47;;;;;;;;;;;;;;;5.84;68.69;102172.09;5085069;28;1009;-80
2023/04/09 08:57:13;;;;;;;;;;;;;;;5.83;68.72;102168.59;5084877;28;1353;-78
2023/04/09 08:59:40;;;;;;;;;;;;;;;5.83;68.78;102168.59;5065775;28;2064;-79
2023/04/09 09:02:06;;;;;;;;;;;;;;;5.84;68.63;102161.41;5064810;28;4981;-78
2023/04/09 09:04:33;;;;;;;;;;;;;;;5.84;68.79;102164.09;5063989;28;5066;-79
2023/04/09 09:06:59;;;;;;;;;;;;;;;5.85;68.94;102163.06;5082864;28;2351;-78
2023/04/09 09:09:26;;;;;;;;;;;;;;;5.85;68.63;102158.59;5067909;28;1130;-79
2023/04/09 09:11:53;;;;;;;;;;;;;;;5.85;68.79;102155.94;5083301;28;2485;-79
2023/04/09 09:14:19;;;;;;;;;;;;;;;5.86;68.72;102156.75;5079157;28;1953;-79
2023/04/09 09:16:46;;;;;;;;;;;;;;;5.85;68.72;102155.06;5084780;28;874;-78
2023/04/09 09:19:15;;;;;;;;;;;;;;;5.86;68.61;102156.75;5082583;28;3922;-78
2023/04/09 09:21:42;;;;;;;;;;;;;;;5.87;68.78;102153.91;5082567;28;2179;-78
2023/04/09 09:24:08;;;;;;;;;;;;;;;5.86;68.82;102154.09;5083572;28;2058;-78
2023/04/09 09:26:35;;;;;;;;;;;;;;;5.87;68.91;102150.41;5083565;28;1279;-79
2023/04/09 09:29:01;;;;;;;;;;;;;;;5.87;68.92;102147.75;5081832;28;1038;-78
2023/04/09 09:31:28;;;;;;;;;;;;;;;5.86;69.10;102157.59;5081004;28;2185;-78
2023/04/09 09:33:55;;;;;;;;;;;;;;;5.87;69.16;102148.56;5083966;28;1914;-78
2023/04/09 09:36:21;;;;;;;;;;;;;;;5.88;69.14;102144.94;5083443;28;901;-77
2023/04/09 09:38:48;;;;;;;;;;;;;;;5.88;69.12;102144.06;5083400;28;1051;-79
2023/04/09 09:41:14;;;;;;;;;;;;;;;5.87;69.47;102137.88;5065012;28;2114;-78
2023/04/09 09:43:41;;;;;;;;;;;;;;;5.89;69.62;102143.09;5082959;28;2104;-78
2023/04/09 09:46:08;;;;;;;;;;;;;;;5.89;69.36;102135.91;5084087;28;1158;-77
2023/04/09 09:48:35;;;;;;;;;;;;;;;5.89;69.46;102133.22;5066215;28;2138;-77
2023/04/09 09:51:01;;;;;;;;;;;;;;;5.91;69.40;102127.72;5083523;28;1006;-75
2023/04/09 09:53:28;;;;;;;;;;;;;;;5.94;69.31;102127.44;5082476;28;1909;-79
2023/04/09 09:55:54;;;;;;;;;;;;;;;5.94;69.49;102124.75;5064279;28;1500;-79
2023/04/09 09:58:21;;;;;;;;;;;;;;;5.94;69.27;102123.94;5082416;28;2088;-79
2023/04/09 10:00:50;;;;;;;;;;;;;;;5.94;69.35;102131.97;5082478;28;1955;-78
2023/04/09 10:03:17;;;;;;;;;;;;;;;5.95;69.60;102125.63;5079342;28;4913;-78
2023/04/09 10:05:43;;;;;;;;;;;;;;;5.96;69.40;102129.97;5078719;28;3362;-79
2023/04/09 10:08:10;;;;;;;;;;;;;;;5.96;69.48;102117.44;5063395;28;2185;-78
2023/04/09 10:10:36;;;;;;;;;;;;;;;5.97;69.43;102120.94;5080270;28;2551;-78
2023/04/09 10:13:03;;;;;;;;;;;;;;;5.98;69.75;102119.97;5072713;28;1909;-78
2023/04/09 10:15:29;;;;;;;;;;;;;;;5.99;69.63;102114.47;5082452;28;1899;-79
2023/04/09 10:17:56;;;;;;;;;;;;;;;5.99;69.46;102110.97;5081266;28;1957;-78
2023/04/09 10:20:22;;;;;;;;;;;;;;;6.00;69.63;102107.28;5081302;28;2066;-78
2023/04/09 10:22:49;;;;;;;;;;;;;;;6.00;70.00;102110.81;5082849;28;2705;-78
2023/04/09 10:25:16;;;;;;;;;;;;;;;6.01;70.02;102101.78;5080861;28;2144;-79
2023/04/09 10:27:45;;;;;;;;;;;;;;;6.01;69.96;102099.13;5081508;28;2218;-77
2023/04/09 10:30:11;;;;;;;;;;;;;;;6.02;69.61;102099.94;5064931;28;1701;-79
2023/04/09 10:32:38;;;;;;;;;;;;;;;6.03;70.16;102102.50;5081369;28;1072;-79
2023/04/09 10:35:05;;;;;;;;;;;;;;;6.05;69.97;102097.81;5078702;28;1933;-80
2023/04/09 10:37:32;;;;;;;;;;;;;;;6.06;70.14;102095.97;5062846;28;1918;-77
2023/04/09 10:39:58;;;;;;;;;;;;;;;6.07;70.08;102098.50;5082730;28;1840;-79
2023/04/09 10:42:26;;;;;;;;;;;;;;;6.08;70.13;102099.34;5080473;28;1863;-77
2023/04/09 10:44:52;;;;;;;;;;;;;;;6.11;69.84;102101.72;5083639;28;2042;-79
2023/04/09 10:47:19;;;;;;;;;;;;;;;6.12;69.65;102092.72;5063861;28;1952;-77
2023/04/09 10:49:45;;;;;;;;;;;;;;;6.12;69.87;102096.22;5063748;28;1683;-79
2023/04/09 10:52:14;;;;;;;;;;;;;;;6.13;70.11;102087.19;5076002;28;1969;-80
2023/04/09 10:54:44;;;;;;;;;;;;;;;6.14;69.90;102090.69;5080914;28;1910;-79
2023/04/09 10:57:12;;;;;;;;;;;;;;;6.14;69.99;102088.88;5077723;28;2031;-77
2023/04/09 10:59:39;;;;;;;;;;;;;;;6.16;70.45;102083.38;5082407;28;1602;-81
2023/04/09 11:02:06;;;;;;;;;;;;;;;6.17;70.19;102077.03;5062737;28;1809;-78
2023/04/09 11:04:32;;;;;;;;;;;;;;;6.18;70.42;102089.41;5080372;28;1717;-79
2023/04/09 11:06:59;;;;;;;;;;;;;;;6.18;70.06;102073.38;5076315;28;4686;-78
2023/04/09 11:09:25;;;;;;;;;;;;;;;6.19;70.21;102069.69;5062704;28;5111;-77
2023/04/09 11:11:52;;;;;;;;;;;;;;;6.20;70.47;102067.84;5081028;28;1907;-79
2023/04/09 11:14:19;;;;;;;;;;;;;;;6.21;70.51;102070.38;5079773;28;1906;-79
2023/04/09 11:16:45;;;;;;;;;;;;;;;6.23;70.05;102064.88;5063653;28;2233;-78
2023/04/09 11:19:12;;;;;;;;;;;;;;;6.23;70.47;102068.38;5082826;28;1842;-79
2023/04/09 11:21:38;;;;;;;;;;;;;;;6.24;70.66;102070.06;5083944;28;1714;-78
2023/04/09 11:24:05;;;;;;;;;;;;;;;6.26;70.26;102061.88;5063213;28;1681;-77
2023/04/09 11:26:32;;;;;;;;;;;;;;;6.25;70.49;102063.72;5063730;28;3618;-79
2023/04/09 11:28:58;;;;;;;;;;;;;;;6.26;70.80;102065.38;5066288;28;1610;-77
2023/04/09 11:31:25;;;;;;;;;;;;;;;6.28;70.63;102060.72;5063324;28;1910;-79
2023/04/09 11:33:51;;;;;;;;;;;;;;;6.32;70.45;102055.91;5064902;28;1967;-78
2023/04/09 11:36:18;;;;;;;;;;;;;;;6.31;70.74;102048.88;5064366;28;2223;-77
2023/04/09 11:38:45;;;;;;;;;;;;;;;6.31;71.03;102043.53;5064184;28;1843;-77
2023/04/09 11:41:12;;;;;;;;;;;;;;;6.33;71.17;102041.56;5065320;28;1757;-80
2023/04/09 11:43:38;;;;;;;;;;;;;;;6.35;70.74;102047.56;5065078;28;1709;-78
2023/04/09 11:46:06;;;;;;;;;;;;;;;6.34;70.81;102040.53;5060958;28;2144;-79
2023/04/09 11:48:33;;;;;;;;;;;;;;;6.36;71.08;102033.22;5064056;28;1658;-79
2023/04/09 11:51:00;;;;;;;;;;;;;;;6.37;71.13;102030.34;5062877;28;1891;-78
2023/04/09 11:53:27;;;;;;;;;;;;;;;6.39;71.28;102032.06;5064328;28;1981;-79
2023/04/09 11:55:53;;;;;;;;;;;;;;;6.39;70.96;102024.03;5062687;28;2023;-77
2023/04/09 11:58:20;;;;;;;;;;;;;;;6.40;71.36;102026.53;5062447;28;958;-77
2023/04/09 12:00:46;;;;;;;;;;;;;;;6.41;71.04;102020.19;5063705;28;1261;-78
2023/04/09 12:03:14;;;;;;;;;;;;;;;6.43;71.02;102025.38;5062946;28;1453;-78
2023/04/09 12:05:41;;;;;;;;;;;;;;;6.45;71.04;102023.41;5063505;28;1920;-79
2023/04/09 12:08:07;;;;;;;;;;;;;;;6.45;71.02;102021.56;5065006;28;1005;-77
2023/04/09 12:10:34;;;;;;;;;;;;;;;6.47;71.39;102016.91;5064944;28;1689;-78
2023/04/09 12:13:00;;;;;;;;;;;;;;;6.48;71.32;102017.72;5064333;28;1915;-78
2023/04/09 12:15:27;;;;;;;;;;;;;;;6.50;71.33;102015.72;5062506;28;4897;-78
2023/04/09 12:17:53;;;;;;;;;;;;;;;6.51;71.27;102017.41;5061526;28;3798;-79
2023/04/09 12:20:20;;;;;;;;;;;;;;;6.52;71.40;102011.91;5061547;28;3710;-79
2023/04/09 12:22:47;;;;;;;;;;;;;;;6.53;71.52;102015.41;5068008;28;2091;-77
2023/04/09 12:25:13;;;;;;;;;;;;;;;6.54;71.67;102015.25;5085562;28;1685;-77
2023/04/09 12:27:40;;;;;;;;;;;;;;;6.55;71.19;102016.94;5067652;28;1951;-78
2023/04/09 12:30:06;;;;;;;;;;;;;;;6.57;71.24;102004.25;5083949;28;1764;-78
2023/04/09 12:32:33;;;;;;;;;;;;;;;6.59;71.23;102001.41;5068397;28;3646;-79
2023/04/09 12:34:59;;;;;;;;;;;;;;;6.62;71.39;102008.25;5079050;28;3577;-77
2023/04/09 12:37:27;;;;;;;;;;;;;;;6.63;71.68;101997.41;5059975;28;2442;-79
2023/04/09 12:39:54;;;;;;;;;;;;;;;6.64;71.62;101996.41;5081494;28;2398;-79
2023/04/09 12:42:20;;;;;;;;;;;;;;;6.66;71.62;101997.09;5063301;28;2153;-79
2023/04/09 12:44:47;;;;;;;;;;;;;;;6.67;71.88;101992.56;5062326;28;2144;-78
2023/04/09 12:47:13;;;;;;;;;;;;;;;6.68;71.88;101997.78;5064658;28;2814;-78
2023/04/09 12:49:44;;;;;;;;;;;;;;;6.70;71.46;101987.72;5069566;28;2249;-79
2023/04/09 12:52:10;;;;;;;;;;;;;;;6.72;71.71;101985.75;5081092;28;2740;-78
2023/04/09 12:54:38;;;;;;;;;;;;;;;6.73;71.88;101987.41;5084253;28;1999;-76
2023/04/09 12:57:07;;;;;;;;;;;;;;;6.75;71.95;101992.63;5080746;28;2073;-78
2023/04/09 12:59:36;;;;;;;;;;;;;;;6.76;71.95;101981.75;5067106;28;1603;-80
2023/04/09 13:02:02;;;;;;;;;;;;;;;6.79;71.56;101985.94;5063569;28;2078;-78
2023/04/09 13:04:29;;;;;;;;;;;;;;;6.81;71.99;101987.47;5084928;28;1900;-81